createdAt,value
2023-05-16T00:00:38.747Z,6.68
2023-05-16T00:03:06.441Z,6.63
2023-05-16T00:05:33.408Z,6.38
2023-05-16T00:08:00.200Z,5.57
2023-05-16T00:10:27.211Z,5.45
2023-05-16T00:12:54.629Z,5.47
2023-05-16T00:15:23.243Z,5.18
2023-05-16T00:17:50.181Z,5.75
2023-05-16T00:20:23.040Z,5.70
2023-05-16T00:22:50.032Z,5.82
2023-05-16T00:25:16.841Z,4.95
2023-05-16T00:27:43.626Z,6.78
2023-05-16T00:30:10.773Z,6.10
2023-05-16T00:32:37.718Z,6.47
2023-05-16T00:35:04.998Z,5.70
2023-05-16T00:37:31.887Z,6.30
2023-05-16T00:39:58.677Z,7.38
2023-05-16T00:42:25.465Z,7.43
2023-05-16T00:44:52.241Z,6.47
2023-05-16T00:47:18.996Z,7.22
2023-05-16T00:49:45.905Z,6.10
2023-05-16T00:52:12.687Z,6.10
2023-05-16T00:54:39.512Z,6.68
2023-05-16T00:57:06.874Z,6.80
2023-05-16T00:59:34.068Z,6.78
2023-05-16T01:02:01.098Z,6.38
2023-05-16T01:04:28.459Z,7.03
2023-05-16T01:06:56.854Z,7.45
2023-05-16T01:09:23.968Z,7.00
2023-05-16T01:11:57.381Z,7.70
2023-05-16T01:14:35.024Z,7.22
2023-05-16T01:17:04.900Z,6.90
2023-05-16T01:19:52.899Z,7.88
2023-05-16T01:22:37.562Z,8.18
2023-05-16T01:25:36.526Z,8.25
2023-05-16T01:28:07.743Z,7.47
2023-05-16T01:30:38.124Z,6.88
2023-05-16T01:33:08.232Z,6.20
2023-05-16T01:35:54.355Z,6.93
2023-05-16T01:38:26.635Z,8.10
2023-05-16T01:41:24.826Z,7.72
2023-05-16T01:43:56.069Z,7.25
2023-05-16T01:46:30.993Z,7.35
2023-05-16T01:49:19.429Z,7.28
2023-05-16T01:51:52.174Z,6.68
2023-05-16T01:54:20.046Z,6.68
2023-05-16T01:56:55.361Z,7.70
2023-05-16T01:59:24.834Z,6.97
2023-05-16T02:01:55.184Z,6.78
2023-05-16T02:04:22.364Z,6.88
2023-05-16T02:06:49.592Z,6.35
2023-05-16T02:09:16.592Z,6.55
2023-05-16T02:11:43.564Z,6.95
2023-05-16T02:14:10.383Z,6.50
2023-05-16T02:16:38.791Z,6.40
2023-05-16T02:19:06.025Z,6.13
2023-05-16T02:21:32.940Z,6.55
2023-05-16T02:23:59.728Z,7.05
2023-05-16T02:26:26.479Z,7.45
2023-05-16T02:28:54.312Z,6.93
2023-05-16T02:31:32.239Z,7.40
2023-05-16T02:34:00.831Z,6.88
2023-05-16T02:36:28.180Z,6.53
2023-05-16T02:38:55.318Z,7.60
2023-05-16T02:41:22.345Z,7.53
2023-05-16T02:43:49.483Z,7.35
2023-05-16T02:46:33.336Z,7.55
2023-05-16T02:49:01.485Z,7.72
2023-05-16T02:51:28.951Z,6.40
2023-05-16T02:54:00.589Z,6.10
2023-05-16T02:56:27.759Z,6.75
2023-05-16T02:58:55.453Z,7.28
2023-05-16T03:01:22.460Z,7.38
2023-05-16T03:03:49.451Z,7.63
2023-05-16T03:06:16.343Z,7.63
2023-05-16T03:08:43.181Z,8.27
2023-05-16T03:11:09.937Z,9.70
2023-05-16T03:13:36.860Z,10.80
2023-05-16T03:16:04.788Z,10.63
2023-05-16T03:18:31.744Z,10.02
2023-05-16T03:20:58.654Z,9.57
2023-05-16T03:23:25.624Z,8.93
2023-05-16T03:25:52.609Z,8.35
2023-05-16T03:28:19.435Z,8.60
2023-05-16T03:30:46.288Z,8.10
2023-05-16T03:33:13.165Z,8.23
2023-05-16T03:35:40.391Z,9.13
2023-05-16T03:38:07.475Z,9.02
2023-05-16T03:40:34.274Z,11.20
2023-05-16T03:43:01.113Z,11.32
2023-05-16T03:45:28.192Z,12.50
2023-05-16T03:47:55.575Z,13.25
2023-05-16T03:50:22.454Z,12.90
2023-05-16T03:52:49.211Z,13.63
2023-05-16T03:55:16.498Z,12.48
2023-05-16T03:57:43.824Z,10.40
2023-05-16T04:00:12.545Z,10.52
2023-05-16T04:02:43.963Z,9.38
2023-05-16T04:05:12.229Z,9.38
2023-05-16T04:07:39.261Z,8.98
2023-05-16T04:10:06.589Z,9.85
2023-05-16T04:12:33.658Z,9.38
2023-05-16T04:15:00.440Z,9.75
2023-05-16T04:17:27.370Z,10.15
2023-05-16T04:19:54.237Z,9.65
2023-05-16T04:22:23.859Z,9.88
2023-05-16T04:24:50.934Z,9.50
2023-05-16T04:27:17.809Z,10.00
2023-05-16T04:29:44.906Z,9.48
2023-05-16T04:32:12.442Z,9.35
2023-05-16T04:34:40.350Z,9.48
2023-05-16T04:37:08.471Z,9.55
2023-05-16T04:39:36.648Z,10.50
2023-05-16T04:42:04.398Z,9.20
2023-05-16T04:44:31.678Z,8.93
2023-05-16T04:46:58.665Z,8.20
2023-05-16T04:49:25.560Z,9.45
2023-05-16T04:51:52.499Z,9.77
2023-05-16T04:54:19.316Z,10.75
2023-05-16T04:56:46.126Z,10.23
2023-05-16T04:59:12.992Z,11.23
2023-05-16T05:01:40.049Z,9.80
2023-05-16T05:04:06.974Z,10.40
2023-05-16T05:06:33.855Z,10.40
2023-05-16T05:09:00.887Z,10.50
2023-05-16T05:11:27.699Z,10.32
2023-05-16T05:13:54.526Z,10.23
2023-05-16T05:16:21.399Z,10.85
2023-05-16T05:18:48.314Z,10.95
2023-05-16T05:21:15.195Z,11.38
2023-05-16T05:23:41.982Z,12.35
2023-05-16T05:26:09.062Z,12.85
2023-05-16T05:28:37.685Z,18.48
2023-05-16T05:31:05.534Z,18.10
2023-05-16T05:33:32.338Z,13.30
2023-05-16T05:35:59.278Z,11.70
2023-05-16T05:38:26.385Z,10.93
2023-05-16T05:40:53.193Z,9.23
2023-05-16T05:43:20.061Z,9.68
2023-05-16T05:45:46.932Z,9.40
2023-05-16T05:48:14.080Z,10.00
2023-05-16T05:50:41.049Z,10.23
2023-05-16T05:53:07.980Z,10.43
2023-05-16T05:55:34.847Z,10.27
2023-05-16T05:58:01.762Z,10.43
2023-05-16T06:00:29.441Z,9.52
2023-05-16T06:02:56.691Z,9.43
2023-05-16T06:05:23.976Z,9.98
2023-05-16T06:07:50.881Z,10.50
2023-05-16T06:10:17.679Z,10.15
2023-05-16T06:12:44.464Z,9.52
2023-05-16T06:15:11.610Z,10.13
2023-05-16T06:17:39.104Z,10.43
2023-05-16T06:20:06.658Z,10.40
2023-05-16T06:22:33.444Z,9.32
2023-05-16T06:25:00.387Z,9.68
2023-05-16T06:27:27.327Z,9.98
2023-05-16T06:29:54.236Z,9.98
2023-05-16T06:32:21.102Z,9.18
2023-05-16T06:34:48.997Z,9.07
2023-05-16T06:37:15.794Z,10.65
2023-05-16T06:39:42.601Z,10.13
2023-05-16T06:42:09.440Z,8.75
2023-05-16T06:44:36.324Z,9.05
2023-05-16T06:47:03.618Z,9.40
2023-05-16T06:49:30.736Z,9.15
2023-05-16T06:51:57.588Z,8.80
2023-05-16T06:54:24.407Z,8.75
2023-05-16T06:56:51.409Z,8.95
2023-05-16T06:59:18.244Z,8.90
2023-05-16T07:01:45.178Z,8.10
2023-05-16T07:04:12.404Z,8.65
2023-05-16T07:06:39.362Z,8.07
2023-05-16T07:09:06.367Z,7.53
2023-05-16T07:11:33.196Z,8.25
2023-05-16T07:14:00.050Z,8.48
2023-05-16T07:16:28.663Z,7.72
2023-05-16T07:18:55.920Z,7.93
2023-05-16T07:21:22.817Z,7.25
2023-05-16T07:23:49.630Z,6.85
2023-05-16T07:26:16.868Z,7.30
2023-05-16T07:28:43.705Z,7.35
2023-05-16T07:31:11.218Z,7.05
2023-05-16T07:33:38.037Z,7.20
2023-05-16T07:36:15.970Z,7.43
2023-05-16T07:38:45.520Z,6.88
2023-05-16T07:41:12.669Z,7.18
2023-05-16T07:43:39.598Z,7.13
2023-05-16T07:46:06.563Z,6.90
2023-05-16T07:48:33.548Z,6.80
2023-05-16T07:51:00.419Z,6.80
2023-05-16T07:53:27.233Z,6.93
2023-05-16T07:55:54.215Z,6.45
2023-05-16T07:58:21.659Z,6.47
2023-05-16T08:00:48.664Z,6.22
2023-05-16T08:03:15.784Z,7.28
2023-05-16T08:05:43.085Z,6.22
2023-05-16T08:08:10.309Z,6.13
2023-05-16T08:10:37.173Z,6.70
2023-05-16T08:13:04.359Z,6.53
2023-05-16T08:15:31.239Z,6.57
2023-05-16T08:17:59.075Z,5.90
2023-05-16T08:20:27.484Z,6.22
2023-05-16T08:22:55.142Z,6.53
2023-05-16T08:25:22.081Z,5.97
2023-05-16T08:27:50.300Z,6.07
2023-05-16T08:30:17.449Z,5.75
2023-05-16T08:32:44.967Z,5.93
2023-05-16T08:35:13.270Z,5.95
2023-05-16T08:37:40.372Z,5.75
2023-05-16T08:40:10.841Z,5.82
2023-05-16T08:42:38.535Z,5.85
2023-05-16T08:45:06.943Z,6.05
2023-05-16T08:47:36.829Z,5.72
2023-05-16T08:50:05.368Z,5.82
2023-05-16T08:52:36.575Z,5.78
2023-05-16T08:55:11.984Z,5.88
2023-05-16T08:57:39.635Z,5.93
2023-05-16T09:00:13.562Z,5.93
2023-05-16T09:02:46.936Z,5.40
2023-05-16T09:07:45.745Z,5.22
2023-05-16T09:10:13.202Z,5.53
2023-05-16T09:12:41.866Z,6.07
2023-05-16T09:15:10.683Z,4.78
2023-05-16T09:17:41.342Z,5.90
2023-05-16T09:20:09.896Z,6.68
2023-05-16T09:22:37.300Z,6.95
2023-05-16T09:25:12.669Z,7.38
2023-05-16T09:27:56.684Z,6.95
2023-05-16T09:30:28.146Z,7.13
2023-05-16T09:32:55.047Z,7.57
2023-05-16T09:35:39.098Z,7.82
2023-05-16T09:38:17.917Z,8.25
2023-05-16T09:40:45.439Z,8.73
2023-05-16T09:43:16.233Z,9.32
2023-05-16T09:45:48.019Z,8.90
2023-05-16T09:48:16.007Z,10.05
2023-05-16T09:50:49.766Z,10.95
2023-05-16T09:55:43.944Z,9.27
2023-05-16T09:58:10.947Z,10.05
2023-05-16T10:00:38.092Z,10.75
2023-05-16T10:03:06.205Z,10.38
2023-05-16T10:05:35.621Z,11.32
2023-05-16T10:08:03.945Z,12.60
2023-05-16T10:10:34.842Z,14.38
2023-05-16T10:13:04.377Z,17.58
2023-05-16T10:15:32.101Z,16.42
2023-05-16T10:18:00.639Z,15.45
2023-05-16T10:20:27.717Z,13.07
2023-05-16T10:22:56.946Z,13.93
2023-05-16T10:25:36.524Z,14.05
2023-05-16T10:28:04.202Z,13.20
2023-05-16T10:30:34.027Z,12.90
2023-05-16T10:33:02.554Z,11.75
2023-05-16T10:35:32.790Z,11.38
2023-05-16T10:38:00.786Z,9.85
2023-05-16T10:40:29.421Z,10.02
2023-05-16T10:43:01.546Z,10.35
2023-05-16T10:45:28.967Z,9.73
2023-05-16T10:48:01.720Z,9.82
2023-05-16T10:50:42.955Z,10.55
2023-05-16T10:53:18.296Z,10.60
2023-05-16T10:56:09.217Z,10.50
2023-05-16T10:58:39.057Z,12.75
2023-05-16T11:01:32.688Z,11.90
2023-05-16T11:04:02.955Z,11.60
2023-05-16T11:06:34.203Z,11.18
2023-05-16T11:09:05.634Z,11.80
2023-05-16T11:11:49.640Z,11.93
2023-05-16T11:14:34.813Z,12.73
2023-05-16T11:17:09.426Z,14.70
2023-05-16T11:19:43.275Z,17.50
2023-05-16T11:22:20.881Z,16.00
2023-05-16T11:25:08.802Z,13.70
2023-05-16T11:27:36.642Z,13.85
2023-05-16T11:30:06.371Z,13.07
2023-05-16T11:32:40.242Z,12.50
2023-05-16T11:35:10.618Z,12.88
2023-05-16T11:37:42.203Z,11.77
2023-05-16T11:40:14.569Z,12.32
2023-05-16T11:42:47.620Z,11.97
2023-05-16T11:45:24.604Z,10.07
2023-05-16T11:47:51.710Z,9.93
2023-05-16T11:50:21.098Z,10.13
2023-05-16T11:52:53.878Z,8.80
2023-05-16T11:55:39.334Z,8.68
2023-05-16T11:58:08.000Z,9.82
2023-05-16T12:00:34.937Z,9.60
2023-05-16T12:03:05.252Z,10.13
2023-05-16T12:05:34.302Z,9.75
2023-05-16T12:08:02.727Z,10.23
2023-05-16T12:10:33.676Z,10.45
2023-05-16T12:13:00.613Z,9.73
2023-05-16T12:15:28.507Z,10.48
2023-05-16T12:17:56.914Z,10.23
2023-05-16T12:20:26.073Z,9.52
2023-05-16T12:22:53.258Z,9.70
2023-05-16T12:25:24.217Z,10.88
2023-05-16T12:27:52.715Z,11.73
2023-05-16T12:30:21.631Z,10.57
2023-05-16T12:33:09.341Z,11.05
2023-05-16T12:35:39.452Z,11.00
2023-05-16T12:38:12.268Z,12.68
2023-05-16T12:40:42.515Z,11.70
2023-05-16T12:43:15.588Z,12.27
2023-05-16T12:48:16.944Z,13.63
2023-05-16T12:50:45.688Z,14.45
2023-05-16T12:53:14.444Z,12.18
2023-05-16T12:55:42.195Z,11.63
2023-05-16T12:58:10.430Z,10.50
2023-05-16T13:00:37.875Z,9.95
2023-05-16T13:03:05.742Z,8.00
2023-05-16T13:05:32.810Z,8.25
2023-05-16T13:07:59.667Z,7.88
2023-05-16T13:10:27.073Z,7.05
2023-05-16T13:12:54.143Z,6.80
2023-05-16T13:15:21.125Z,7.05
2023-05-16T13:17:48.606Z,7.05
2023-05-16T13:20:15.857Z,6.30
2023-05-16T13:22:44.773Z,6.55
2023-05-16T13:25:12.231Z,7.53
2023-05-16T13:27:39.199Z,8.45
2023-05-16T13:30:07.353Z,8.85
2023-05-16T13:32:34.564Z,10.00
2023-05-16T13:35:01.529Z,9.82
2023-05-16T13:37:30.130Z,9.02
2023-05-16T13:39:57.078Z,10.43
2023-05-16T13:42:23.951Z,10.57
2023-05-16T13:44:51.535Z,13.48
2023-05-16T13:47:18.694Z,12.93
2023-05-16T13:49:45.843Z,14.05
2023-05-16T13:52:12.758Z,13.45
2023-05-16T13:54:41.491Z,13.05
2023-05-16T13:57:08.642Z,12.20
2023-05-16T13:59:56.804Z,10.50
2023-05-16T14:02:22.751Z,9.80
2023-05-16T14:04:50.020Z,9.45
2023-05-16T14:07:17.174Z,9.50
2023-05-16T14:09:45.168Z,9.45
2023-05-16T14:12:12.020Z,8.88
2023-05-16T14:14:39.088Z,8.32
2023-05-16T14:17:06.760Z,8.77
2023-05-16T14:19:34.499Z,8.50
2023-05-16T14:22:01.442Z,9.00
2023-05-16T14:24:28.453Z,8.38
2023-05-16T14:26:55.461Z,9.02
2023-05-16T14:29:22.679Z,9.27
2023-05-16T14:31:49.802Z,9.07
2023-05-16T14:34:16.699Z,9.48
2023-05-16T14:36:43.788Z,9.50
2023-05-16T14:39:10.816Z,9.02
2023-05-16T14:41:37.680Z,9.93
2023-05-16T14:44:04.773Z,9.05
2023-05-16T14:46:31.709Z,8.80
2023-05-16T14:48:58.562Z,7.03
2023-05-16T14:51:26.463Z,7.40
2023-05-16T14:53:53.294Z,8.10
2023-05-16T14:56:20.124Z,7.80
2023-05-16T14:58:46.912Z,7.97
2023-05-16T15:01:15.235Z,8.70
2023-05-16T15:06:11.987Z,10.73
2023-05-16T15:08:38.828Z,12.13
2023-05-16T15:11:05.752Z,12.25
2023-05-16T15:13:32.590Z,12.30
2023-05-16T15:15:59.474Z,13.45
2023-05-16T15:18:26.306Z,13.18
2023-05-16T15:20:53.282Z,12.68
2023-05-16T15:23:20.130Z,12.48
2023-05-16T15:25:46.981Z,12.77
2023-05-16T15:28:13.832Z,12.50
2023-05-16T15:30:40.778Z,11.77
2023-05-16T15:33:07.756Z,11.25
2023-05-16T15:35:34.762Z,9.65
2023-05-16T15:38:01.668Z,10.85
2023-05-16T15:40:28.856Z,9.43
2023-05-16T15:42:55.969Z,9.15
2023-05-16T15:45:22.803Z,9.43
2023-05-16T15:47:49.700Z,9.75
2023-05-16T15:50:16.695Z,8.68
2023-05-16T15:52:43.580Z,9.00
2023-05-16T15:55:11.958Z,9.50
2023-05-16T15:57:38.875Z,8.25
2023-05-16T16:00:06.480Z,9.10
2023-05-16T16:02:33.933Z,8.77
2023-05-16T16:05:00.838Z,8.40
2023-05-16T16:07:27.729Z,8.43
2023-05-16T16:09:54.632Z,8.38
2023-05-16T16:12:22.585Z,7.65
2023-05-16T16:14:49.548Z,7.88
2023-05-16T16:17:16.681Z,7.75
2023-05-16T16:19:43.613Z,6.97
2023-05-16T16:22:10.442Z,7.07
2023-05-16T16:24:37.269Z,6.72
2023-05-16T16:27:04.478Z,6.63
2023-05-16T16:29:31.576Z,7.20
2023-05-16T16:31:58.888Z,6.50
2023-05-16T16:34:25.870Z,6.18
2023-05-16T16:36:52.721Z,6.97
2023-05-16T16:39:19.932Z,7.35
2023-05-16T16:41:46.755Z,6.85
2023-05-16T16:44:13.684Z,7.18
2023-05-16T16:46:40.899Z,6.07
2023-05-16T16:49:07.820Z,6.07
2023-05-16T16:51:35.192Z,5.82
2023-05-16T16:54:02.269Z,6.38
2023-05-16T16:56:30.070Z,6.72
2023-05-16T16:58:56.953Z,6.65
2023-05-16T17:01:23.978Z,7.22
2023-05-16T17:03:50.973Z,7.18
2023-05-16T17:06:17.802Z,7.18
2023-05-16T17:08:45.435Z,6.93
2023-05-16T17:11:12.348Z,6.72
2023-05-16T17:13:41.841Z,6.60
2023-05-16T17:16:10.134Z,6.28
2023-05-16T17:18:37.137Z,6.63
2023-05-16T17:21:04.108Z,7.30
2023-05-16T17:23:31.035Z,6.30
2023-05-16T17:25:57.906Z,6.97
2023-05-16T17:28:25.911Z,6.40
2023-05-16T17:30:52.825Z,5.18
2023-05-16T17:33:19.704Z,5.55
2023-05-16T17:35:47.426Z,5.30
2023-05-16T17:38:14.319Z,5.28
2023-05-16T17:40:41.218Z,4.60
2023-05-16T17:43:08.029Z,4.75
2023-05-16T17:45:34.877Z,5.47
2023-05-16T17:48:02.211Z,5.50
2023-05-16T17:50:30.100Z,5.13
2023-05-16T17:52:57.351Z,4.82
2023-05-16T17:55:24.653Z,5.43
2023-05-16T17:57:51.820Z,4.55
2023-05-16T18:00:19.052Z,4.38
2023-05-16T18:02:45.925Z,4.15
2023-05-16T18:05:13.902Z,3.63
2023-05-16T18:07:41.018Z,4.07
2023-05-16T18:10:08.869Z,4.20
2023-05-16T18:12:36.284Z,4.03
2023-05-16T18:15:04.434Z,3.67
2023-05-16T18:17:33.980Z,3.92
2023-05-16T18:20:08.988Z,3.97
2023-05-16T18:22:40.226Z,4.07
2023-05-16T18:25:09.610Z,3.88
2023-05-16T18:27:37.764Z,4.00
2023-05-16T18:30:05.730Z,4.30
2023-05-16T18:32:33.201Z,3.88
2023-05-16T18:35:00.085Z,3.65
2023-05-16T18:37:27.042Z,4.05
2023-05-16T18:39:54.015Z,4.65
2023-05-16T18:42:21.052Z,4.15
2023-05-16T18:44:47.852Z,4.40
2023-05-16T18:47:15.773Z,4.28
2023-05-16T18:49:44.036Z,4.18
2023-05-16T18:52:11.507Z,4.05
2023-05-16T18:54:39.108Z,4.50
2023-05-16T18:57:07.728Z,4.30
2023-05-16T18:59:35.189Z,4.25
2023-05-16T19:02:02.274Z,3.92
2023-05-16T19:04:29.868Z,3.65
2023-05-16T19:06:58.040Z,3.28
2023-05-16T19:09:25.221Z,2.63
2023-05-16T19:11:52.348Z,2.65
2023-05-16T19:14:19.264Z,3.00
2023-05-16T19:16:46.362Z,2.97
2023-05-16T19:19:13.339Z,2.88
2023-05-16T19:21:40.420Z,2.72
2023-05-16T19:24:08.324Z,2.65
2023-05-16T19:26:35.367Z,2.40
2023-05-16T19:29:02.613Z,2.47
2023-05-16T19:31:29.732Z,2.47
2023-05-16T19:33:56.684Z,2.42
2023-05-16T19:36:23.855Z,2.30
2023-05-16T19:38:50.767Z,1.98
2023-05-16T19:41:17.741Z,2.58
2023-05-16T19:43:44.652Z,2.38
2023-05-16T19:46:11.521Z,2.50
2023-05-16T19:48:38.481Z,2.63
2023-05-16T19:51:05.395Z,2.28
2023-05-16T19:53:32.273Z,2.45
2023-05-16T19:55:59.341Z,2.80
2023-05-16T19:58:26.522Z,2.22
2023-05-16T20:00:56.069Z,2.20
2023-05-16T20:03:23.964Z,2.15
2023-05-16T20:05:51.173Z,2.70
2023-05-16T20:08:18.043Z,2.80
2023-05-16T20:10:45.016Z,2.30
2023-05-16T20:13:11.902Z,2.10
2023-05-16T20:15:38.757Z,2.08
2023-05-16T20:18:06.435Z,2.22
2023-05-16T20:20:33.389Z,2.50
2023-05-16T20:23:00.211Z,2.38
2023-05-16T20:25:27.609Z,2.67
2023-05-16T20:27:54.763Z,3.55
2023-05-16T20:30:22.027Z,2.17
2023-05-16T20:32:50.598Z,2.10
2023-05-16T20:35:17.450Z,2.38
2023-05-16T20:37:44.663Z,2.45
2023-05-16T20:40:11.825Z,3.00
2023-05-16T20:42:38.726Z,2.55
2023-05-16T20:45:06.427Z,2.72
2023-05-16T20:47:33.332Z,2.10
2023-05-16T20:50:00.169Z,2.60
2023-05-16T20:52:27.931Z,2.30
2023-05-16T20:54:54.775Z,2.35
2023-05-16T20:57:21.710Z,2.45
2023-05-16T20:59:48.609Z,2.45
2023-05-16T21:02:15.622Z,2.47
2023-05-16T21:04:42.514Z,1.95
2023-05-16T21:07:11.294Z,2.10
2023-05-16T21:09:39.703Z,2.33
2023-05-16T21:12:06.941Z,2.03
2023-05-16T21:14:33.760Z,2.55
2023-05-16T21:17:00.682Z,2.50
2023-05-16T21:19:27.813Z,2.22
2023-05-16T21:21:54.979Z,2.53
2023-05-16T21:24:21.923Z,2.45
2023-05-16T21:26:48.750Z,2.97
2023-05-16T21:29:15.589Z,2.08
2023-05-16T21:31:42.437Z,2.53
2023-05-16T21:34:09.712Z,2.50
2023-05-16T21:36:36.707Z,2.38
2023-05-16T21:39:03.571Z,2.50
2023-05-16T21:41:30.413Z,2.85
2023-05-16T21:43:57.232Z,2.55
2023-05-16T21:46:24.118Z,2.47
2023-05-16T21:48:51.103Z,2.47
2023-05-16T21:51:19.190Z,2.65
2023-05-16T21:53:48.695Z,2.70
2023-05-16T21:56:15.537Z,2.08
2023-05-16T21:58:42.507Z,2.47
2023-05-16T22:01:09.685Z,2.33
2023-05-16T22:03:36.629Z,2.30
2023-05-16T22:06:03.640Z,2.42
2023-05-16T22:08:30.541Z,2.60
2023-05-16T22:10:57.572Z,2.50
2023-05-16T22:13:24.769Z,2.20
2023-05-16T22:16:03.491Z,2.22
2023-05-16T22:18:32.890Z,2.88
2023-05-16T22:21:00.278Z,2.13
2023-05-16T22:23:27.191Z,2.65
2023-05-16T22:25:54.022Z,2.35
2023-05-16T22:28:21.153Z,2.63
2023-05-16T22:30:47.967Z,2.50
2023-05-16T22:33:14.838Z,2.35
2023-05-16T22:35:41.726Z,2.85
2023-05-16T22:38:08.566Z,3.22
2023-05-16T22:40:35.495Z,2.28
2023-05-16T22:43:02.358Z,2.10
2023-05-16T22:45:29.443Z,2.38
2023-05-16T22:47:56.542Z,2.42
2023-05-16T22:50:23.522Z,2.17
2023-05-16T22:52:50.425Z,2.58
2023-05-16T22:55:17.294Z,2.20
2023-05-16T22:57:44.496Z,1.90
2023-05-16T23:00:11.820Z,2.30
2023-05-16T23:02:38.875Z,2.40
2023-05-16T23:05:06.379Z,2.20
2023-05-16T23:07:33.234Z,2.22
2023-05-16T23:10:00.077Z,2.97
2023-05-16T23:12:26.959Z,2.40
2023-05-16T23:14:53.827Z,2.40
2023-05-16T23:17:20.954Z,2.20
2023-05-16T23:19:47.826Z,2.05
2023-05-16T23:22:14.920Z,2.90
2023-05-16T23:24:41.801Z,2.20
2023-05-16T23:27:08.682Z,2.05
2023-05-16T23:29:35.620Z,2.10
2023-05-16T23:32:02.509Z,1.98
2023-05-16T23:34:29.692Z,2.60
2023-05-16T23:36:56.502Z,2.30
2023-05-16T23:39:23.326Z,2.28
2023-05-16T23:41:50.164Z,2.03
2023-05-16T23:44:16.981Z,2.28
2023-05-16T23:46:43.832Z,1.75
2023-05-16T23:49:10.744Z,2.17
2023-05-16T23:51:55.431Z,2.20
2023-05-16T23:54:23.794Z,1.90
2023-05-16T23:56:51.030Z,1.75
2023-05-16T23:59:19.179Z,2.03
